EDST weather

Flugplatz Hahnweide
Kirchheim unter Teck, Baden-W├╝rttemberg, Germany

Public forecast

Using degrees Celsius for public forecast. Weather courtesy of forecast.io.

METAR (pilot weather report)

Closest report is Stuttgart Airport, 9.0 nm (16.6 km) WNW. Retrieved 2019/09/22 08:20 UTC (37 minutes ago):

EDDS 220820Z VRB01KT CAVOK 12/09 Q1013 NOSIG

TAF (pilot weather forecast)

Closest forecast is Stuttgart Airport, 9.0 nm (16.6 km) WNW. Retrieved 2019/09/22 06:27 UTC (3 hours ago):

TAF TAF EDDS 220500Z 2206/2306 VRB03KT CAVOK TEMPO 2301/2306 4000 RA BKN010 BECMG 2301/2304 25006KT